Time;durP1;ratioP1;P1;durP2;ratioP2;P2;SDS_P1;SDS_P2;PMS_P1;PMS_P2;Temp;Humidity;BMP_temperature;BMP_pressure;BME280_temperature;BME280_humidity;BME280_pressure;Samples;Min_cycle;Max_cycle;Signal;HPM_P1;HPM_P2
2023/06/03 00:00:55;;;;;;;6.50;3.60;;;13.90;99.90;;;;;;2090441;28;20036;-74
2023/06/03 00:01:57;;;;;;;6.32;3.67;;;13.90;99.90;;;;;;2091299;28;20468;-73
2023/06/03 00:02:57;;;;;;;4.75;3.15;;;13.90;99.90;;;;;;2090613;28;20492;-74
2023/06/03 00:03:58;;;;;;;7.00;3.90;;;13.90;99.90;;;;;;2091677;28;20411;-74
2023/06/03 00:05:00;;;;;;;6.82;3.40;;;13.90;99.90;;;;;;2091735;28;20068;-73
2023/06/03 00:06:01;;;;;;;4.88;2.80;;;13.80;99.90;;;;;;2091135;28;20052;-73
2023/06/03 00:07:02;;;;;;;5.53;4.05;;;13.80;99.90;;;;;;2092596;28;20017;-73
2023/06/03 00:08:03;;;;;;;7.68;3.60;;;13.80;99.90;;;;;;2090525;28;20035;-73
2023/06/03 00:09:03;;;;;;;8.27;3.67;;;13.80;99.90;;;;;;2090757;28;20148;-73
2023/06/03 00:10:04;;;;;;;6.82;3.40;;;13.80;99.90;;;;;;2092078;28;20028;-73
2023/06/03 00:11:05;;;;;;;4.75;3.33;;;13.80;99.90;;;;;;2091886;28;20013;-73
2023/06/03 00:12:06;;;;;;;8.68;3.88;;;13.80;99.90;;;;;;2091981;28;20093;-73
2023/06/03 00:13:07;;;;;;;7.68;4.25;;;13.80;99.90;;;;;;2093618;28;20508;-73
2023/06/03 00:14:07;;;;;;;5.97;3.78;;;13.70;99.90;;;;;;2094856;28;20025;-73
2023/06/03 00:15:09;;;;;;;9.18;3.90;;;13.70;99.90;;;;;;2093514;28;20110;-73
2023/06/03 00:16:09;;;;;;;9.43;4.47;;;13.70;99.90;;;;;;2092642;28;20499;-73
2023/06/03 00:17:11;;;;;;;5.93;3.58;;;13.70;99.90;;;;;;2094758;28;20431;-73
2023/06/03 00:18:12;;;;;;;14.02;3.92;;;13.70;99.90;;;;;;2091714;28;20067;-73
2023/06/03 00:19:14;;;;;;;7.53;3.95;;;13.70;99.90;;;;;;2091127;28;20033;-73
2023/06/03 00:20:15;;;;;;;6.78;4.30;;;13.70;99.90;;;;;;2092963;28;20032;-73
2023/06/03 00:21:16;;;;;;;4.82;3.25;;;13.70;99.90;;;;;;2092843;28;20116;-73
2023/06/03 00:22:17;;;;;;;9.43;3.72;;;13.70;99.90;;;;;;2094288;28;20043;-73
2023/06/03 00:23:17;;;;;;;6.03;3.72;;;13.70;99.90;;;;;;2093062;28;20053;-73
2023/06/03 00:24:22;;;;;;;5.68;3.35;;;13.60;99.90;;;;;;2092080;28;20056;-73
2023/06/03 00:25:23;;;;;;;8.57;3.95;;;13.60;99.90;;;;;;2090666;28;20043;-73
2023/06/03 00:26:25;;;;;;;6.75;3.53;;;13.60;99.90;;;;;;2094095;28;20107;-73
2023/06/03 00:27:26;;;;;;;6.55;3.58;;;13.60;99.90;;;;;;2091991;28;20025;-73
2023/06/03 00:28:26;;;;;;;6.25;3.63;;;13.60;99.90;;;;;;2094741;28;20119;-73
2023/06/03 00:29:27;;;;;;;5.93;3.70;;;13.60;99.90;;;;;;2091425;28;20033;-73
2023/06/03 00:30:28;;;;;;;5.03;3.22;;;13.60;99.90;;;;;;2090492;28;20039;-73
2023/06/03 00:31:29;;;;;;;5.68;3.80;;;13.60;99.90;;;;;;2092341;28;20468;-73
2023/06/03 00:32:29;;;;;;;6.82;3.50;;;13.60;99.90;;;;;;2091863;28;20395;-73
2023/06/03 00:33:31;;;;;;;6.28;3.80;;;13.60;99.90;;;;;;2093550;28;20033;-73
2023/06/03 00:34:31;;;;;;;7.32;3.78;;;13.50;99.90;;;;;;2091627;28;20025;-73
2023/06/03 00:35:33;;;;;;;5.03;3.60;;;13.60;99.90;;;;;;2093709;28;20055;-73
2023/06/03 00:36:34;;;;;;;6.13;3.70;;;13.50;99.90;;;;;;2096265;28;20031;-73
2023/06/03 00:37:35;;;;;;;7.00;3.80;;;13.50;99.90;;;;;;2090544;28;20040;-73
2023/06/03 00:38:35;;;;;;;8.35;3.67;;;13.50;99.90;;;;;;2092198;28;20032;-73
2023/06/03 00:39:36;;;;;;;8.02;3.85;;;13.50;99.90;;;;;;2090527;28;20060;-73
2023/06/03 00:40:36;;;;;;;7.13;3.22;;;13.50;99.90;;;;;;2095224;28;20025;-73
2023/06/03 00:41:37;;;;;;;4.80;3.53;;;13.50;99.90;;;;;;2093959;28;20033;-73
2023/06/03 00:42:37;;;;;;;6.25;3.20;;;13.50;99.90;;;;;;2094054;28;20025;-73
2023/06/03 00:43:38;;;;;;;6.93;3.67;;;13.40;99.90;;;;;;2091183;28;20029;-73
2023/06/03 00:44:38;;;;;;;5.85;3.28;;;13.40;99.90;;;;;;2091069;28;20119;-73
2023/06/03 00:45:39;;;;;;;11.02;4.18;;;13.40;99.90;;;;;;2091081;28;20020;-73
2023/06/03 00:46:41;;;;;;;8.40;3.75;;;13.40;99.90;;;;;;2092419;28;20032;-73
2023/06/03 00:47:42;;;;;;;9.18;4.00;;;13.40;99.90;;;;;;2091232;28;20036;-73
2023/06/03 00:48:42;;;;;;;7.25;3.50;;;13.40;99.90;;;;;;2093345;28;20112;-73
2023/06/03 00:49:43;;;;;;;6.82;3.40;;;13.40;99.90;;;;;;2092675;28;20164;-73
2023/06/03 00:50:44;;;;;;;7.95;3.78;;;13.40;99.90;;;;;;2090680;28;20030;-73
2023/06/03 00:51:46;;;;;;;8.15;3.85;;;13.40;99.90;;;;;;2091890;28;20493;-73
2023/06/03 00:52:47;;;;;;;6.03;3.80;;;13.40;99.90;;;;;;2092217;28;20021;-73
2023/06/03 00:53:48;;;;;;;6.43;3.55;;;13.30;99.90;;;;;;2091685;28;20035;-73
2023/06/03 00:54:49;;;;;;;8.07;3.90;;;13.30;99.90;;;;;;2090895;28;20111;-73
2023/06/03 00:55:50;;;;;;;7.55;3.42;;;13.30;99.90;;;;;;2094652;28;20576;-73
2023/06/03 00:56:51;;;;;;;7.07;3.65;;;13.30;99.90;;;;;;2091677;28;20396;-73
2023/06/03 00:57:52;;;;;;;10.35;4.45;;;13.30;99.90;;;;;;2092459;28;20843;-73
2023/06/03 00:58:53;;;;;;;9.10;4.35;;;13.30;99.90;;;;;;2092720;28;20117;-73
2023/06/03 00:59:54;;;;;;;8.95;4.30;;;13.30;99.90;;;;;;2091027;28;20081;-73
2023/06/03 01:00:55;;;;;;;8.20;3.92;;;13.30;99.90;;;;;;2092744;28;20066;-73
2023/06/03 01:01:55;;;;;;;10.13;4.40;;;13.30;99.90;;;;;;2092472;28;20428;-73
2023/06/03 01:02:57;;;;;;;10.95;4.55;;;13.30;99.90;;;;;;2091383;28;20025;-73
2023/06/03 01:03:57;;;;;;;7.55;3.90;;;13.30;99.90;;;;;;2092295;28;20055;-73
2023/06/03 01:04:58;;;;;;;8.30;3.85;;;13.30;99.90;;;;;;2091774;28;20547;-73
2023/06/03 01:06:32;;;;;;;7.63;5.00;;;13.20;99.90;;;;;;2090797;28;20816;-73
2023/06/03 01:07:50;;;;;;;9.80;4.22;;;13.20;99.90;;;;;;2090340;28;20031;-72
2023/06/03 01:09:14;;;;;;;9.68;4.55;;;13.20;99.90;;;;;;2092214;28;20086;-73
2023/06/03 01:10:24;;;;;;;11.48;4.80;;;13.20;99.90;;;;;;2092770;28;20495;-73
2023/06/03 01:11:56;;;;;;;8.32;4.40;;;13.20;99.90;;;;;;2091604;28;20035;-73
2023/06/03 01:13:04;;;;;;;6.22;3.63;;;13.10;99.90;;;;;;2091752;28;20028;-73
2023/06/03 01:14:27;;;;;;;7.40;4.72;;;13.10;99.90;;;;;;2089149;28;20028;-73
2023/06/03 01:15:30;;;;;;;7.82;3.80;;;13.10;99.90;;;;;;2093264;28;20033;-73
2023/06/03 01:16:32;;;;;;;7.53;4.30;;;13.10;99.90;;;;;;2092855;28;20020;-73
2023/06/03 01:17:39;;;;;;;6.93;4.38;;;13.10;99.90;;;;;;2092496;28;20104;-73
2023/06/03 01:18:42;;;;;;;6.65;4.25;;;13.10;99.90;;;;;;2093064;28;20033;-73
2023/06/03 01:19:49;;;;;;;8.50;4.55;;;13.10;99.90;;;;;;2090492;28;20052;-73
2023/06/03 01:20:50;;;;;;;7.53;4.32;;;13.10;99.90;;;;;;2090053;28;20793;-73
2023/06/03 01:21:53;;;;;;;9.63;5.20;;;13.10;99.90;;;;;;2092654;28;20388;-73
2023/06/03 01:23:23;;;;;;;8.95;3.95;;;13.10;99.90;;;;;;2094224;28;20024;-73
2023/06/03 01:24:24;;;;;;;10.95;5.30;;;13.10;99.90;;;;;;2092478;28;20017;-73
2023/06/03 01:25:26;;;;;;;9.32;4.28;;;13.00;99.90;;;;;;2092704;28;20495;-73
2023/06/03 01:26:28;;;;;;;6.97;4.30;;;13.10;99.90;;;;;;2094435;28;20017;-73
2023/06/03 01:27:29;;;;;;;7.55;4.07;;;13.10;99.90;;;;;;2092777;28;20078;-73
2023/06/03 01:28:31;;;;;;;9.63;4.47;;;13.00;99.90;;;;;;2092448;28;20158;-73
2023/06/03 01:29:31;;;;;;;8.65;4.28;;;13.00;99.90;;;;;;2098670;28;20024;-73
2023/06/03 01:30:32;;;;;;;8.95;4.97;;;13.00;99.90;;;;;;2096917;28;20118;-73
2023/06/03 01:31:33;;;;;;;5.82;4.00;;;13.00;99.90;;;;;;2092491;28;20025;-73
2023/06/03 01:32:35;;;;;;;6.20;3.38;;;13.00;99.90;;;;;;2092091;28;20409;-73
2023/06/03 01:33:37;;;;;;;7.35;4.38;;;13.00;99.90;;;;;;2091867;28;20476;-73
2023/06/03 01:34:39;;;;;;;8.75;4.30;;;13.00;99.90;;;;;;2094276;28;20070;-73
2023/06/03 01:35:40;;;;;;;8.43;4.78;;;13.00;99.90;;;;;;2087130;28;20507;-73
2023/06/03 01:36:41;;;;;;;4.72;3.83;;;13.00;99.90;;;;;;2094876;28;20604;-73
2023/06/03 01:37:42;;;;;;;9.10;4.60;;;13.00;99.90;;;;;;2090949;28;20086;-73
2023/06/03 01:38:43;;;;;;;10.48;4.45;;;13.00;99.90;;;;;;2095717;28;20408;-73
2023/06/03 01:39:44;;;;;;;7.60;4.93;;;13.00;99.90;;;;;;2094040;28;20024;-73
2023/06/03 01:40:45;;;;;;;7.55;4.63;;;13.00;99.90;;;;;;2090870;28;20520;-73
2023/06/03 01:41:47;;;;;;;7.55;4.63;;;13.00;99.90;;;;;;2091992;28;20060;-73
2023/06/03 01:42:47;;;;;;;8.48;4.50;;;13.00;99.90;;;;;;2089170;28;20087;-73
2023/06/03 01:43:48;;;;;;;9.07;4.65;;;13.00;99.90;;;;;;2090735;28;20047;-73
2023/06/03 01:44:49;;;;;;;15.02;5.32;;;13.00;99.90;;;;;;2091455;28;20029;-73
2023/06/03 01:45:50;;;;;;;7.85;4.28;;;13.00;99.90;;;;;;2092218;28;20480;-73
2023/06/03 01:46:51;;;;;;;5.82;3.80;;;13.00;99.90;;;;;;2090678;28;20064;-73
2023/06/03 01:47:51;;;;;;;6.90;3.67;;;13.00;99.90;;;;;;2094023;28;20016;-73
2023/06/03 01:48:52;;;;;;;7.00;3.78;;;13.00;99.90;;;;;;2090387;28;20437;-73
2023/06/03 01:49:53;;;;;;;8.75;4.43;;;13.00;99.90;;;;;;2091741;28;20573;-73
2023/06/03 01:50:54;;;;;;;10.27;4.40;;;13.00;99.90;;;;;;2092641;28;20033;-73
2023/06/03 01:51:54;;;;;;;7.25;4.30;;;13.00;99.90;;;;;;2101236;28;20032;-73
2023/06/03 01:52:55;;;;;;;6.68;3.88;;;12.90;99.90;;;;;;2092050;28;20028;-73
2023/06/03 01:53:56;;;;;;;9.68;5.20;;;13.00;99.90;;;;;;2093292;28;20045;-73
2023/06/03 01:54:56;;;;;;;8.75;4.60;;;12.90;99.90;;;;;;2091866;28;20536;-73
2023/06/03 01:55:57;;;;;;;7.93;4.38;;;13.00;99.90;;;;;;2093132;28;20040;-73
2023/06/03 01:56:57;;;;;;;7.45;4.07;;;12.90;99.90;;;;;;2094034;28;20032;-73
2023/06/03 01:57:58;;;;;;;10.38;4.72;;;12.90;99.90;;;;;;2094880;28;20031;-73
2023/06/03 01:58:58;;;;;;;8.60;4.35;;;12.90;99.90;;;;;;2089637;28;20032;-73
2023/06/03 01:59:59;;;;;;;10.18;4.80;;;12.90;99.90;;;;;;2092124;28;20024;-73
2023/06/03 02:01:00;;;;;;;11.43;5.63;;;12.90;99.90;;;;;;2092583;28;20574;-73
2023/06/03 02:02:00;;;;;;;7.65;4.97;;;12.90;99.90;;;;;;2091317;28;20055;-73
2023/06/03 02:03:01;;;;;;;8.82;4.97;;;12.90;99.90;;;;;;2091081;28;20031;-73
2023/06/03 02:04:01;;;;;;;6.88;4.10;;;12.90;99.90;;;;;;2091312;28;20017;-73
2023/06/03 02:05:03;;;;;;;9.18;4.70;;;12.90;99.90;;;;;;2092741;28;20119;-73
2023/06/03 02:06:04;;;;;;;8.20;4.95;;;12.90;99.90;;;;;;2092622;28;20057;-73
2023/06/03 02:07:06;;;;;;;9.68;4.90;;;12.90;99.90;;;;;;2093239;28;20013;-73
2023/06/03 02:08:07;;;;;;;9.02;4.93;;;12.90;99.90;;;;;;2090798;28;20055;-73
2023/06/03 02:09:10;;;;;;;6.90;4.80;;;12.90;99.90;;;;;;2093634;28;20727;-73
2023/06/03 02:10:10;;;;;;;7.43;4.75;;;12.90;99.90;;;;;;2092719;28;20534;-73
2023/06/03 02:11:11;;;;;;;9.85;4.75;;;12.90;99.90;;;;;;2091709;28;20388;-73
2023/06/03 02:12:11;;;;;;;10.93;5.15;;;12.80;99.90;;;;;;2090318;28;20421;-73
2023/06/03 02:13:13;;;;;;;6.85;4.25;;;12.90;99.90;;;;;;2091744;28;20017;-73
2023/06/03 02:14:14;;;;;;;7.70;4.82;;;12.80;99.90;;;;;;2093198;28;20020;-73
2023/06/03 02:15:14;;;;;;;7.82;4.93;;;12.90;99.90;;;;;;2091912;28;20017;-73
2023/06/03 02:16:15;;;;;;;9.48;4.65;;;12.80;99.90;;;;;;2091376;28;20021;-73
2023/06/03 02:17:15;;;;;;;7.38;4.90;;;12.90;99.90;;;;;;2092376;28;20035;-73
2023/06/03 02:18:17;;;;;;;9.27;5.20;;;12.80;99.90;;;;;;2095596;28;21019;-73
2023/06/03 02:19:20;;;;;;;9.73;5.40;;;12.80;99.90;;;;;;2092725;28;20144;-73
2023/06/03 02:20:22;;;;;;;10.82;4.97;;;12.80;99.90;;;;;;2091399;28;20048;-73
2023/06/03 02:21:22;;;;;;;11.98;5.82;;;12.80;99.90;;;;;;2091778;28;20020;-73
2023/06/03 02:22:24;;;;;;;8.57;5.20;;;12.80;99.90;;;;;;2091288;28;20043;-73
2023/06/03 02:23:24;;;;;;;11.52;5.75;;;12.80;99.90;;;;;;2092201;28;20017;-73
2023/06/03 02:24:28;;;;;;;9.45;5.07;;;12.80;99.90;;;;;;2093055;28;20028;-73
2023/06/03 02:25:29;;;;;;;7.35;4.40;;;12.80;99.90;;;;;;2090765;28;20415;-73
2023/06/03 02:26:30;;;;;;;5.45;4.40;;;12.80;99.90;;;;;;2093834;28;20031;-72
2023/06/03 02:27:30;;;;;;;8.50;4.28;;;12.80;99.90;;;;;;2092025;28;20024;-73
2023/06/03 02:28:31;;;;;;;9.07;4.97;;;12.80;99.90;;;;;;2092081;28;20028;-73
2023/06/03 02:29:32;;;;;;;7.20;5.05;;;12.80;99.90;;;;;;2093429;28;20108;-73
2023/06/03 02:30:32;;;;;;;8.05;4.85;;;12.70;99.90;;;;;;2094345;28;20025;-72
2023/06/03 02:31:33;;;;;;;9.85;5.00;;;12.80;99.90;;;;;;2093114;28;20016;-72
2023/06/03 02:32:33;;;;;;;11.13;5.28;;;12.80;99.90;;;;;;2091413;28;20112;-73
2023/06/03 02:33:34;;;;;;;8.15;4.57;;;12.80;99.90;;;;;;2092055;28;20036;-73
2023/06/03 02:34:34;;;;;;;5.78;4.85;;;12.70;99.90;;;;;;2093004;28;20028;-73
2023/06/03 02:35:35;;;;;;;9.20;4.53;;;12.70;99.90;;;;;;2092864;28;20036;-73
2023/06/03 02:36:37;;;;;;;9.32;4.70;;;12.70;99.90;;;;;;2092328;28;20697;-73
2023/06/03 02:37:38;;;;;;;8.80;4.43;;;12.70;99.90;;;;;;2082207;28;20497;-73
2023/06/03 02:38:38;;;;;;;6.78;4.22;;;12.70;99.90;;;;;;2090816;28;20434;-73
2023/06/03 02:39:39;;;;;;;9.65;4.57;;;12.70;99.90;;;;;;2090349;28;20112;-73
2023/06/03 02:40:40;;;;;;;7.95;4.38;;;12.70;99.90;;;;;;2090730;28;20020;-73
2023/06/03 02:41:42;;;;;;;7.28;4.22;;;12.70;99.90;;;;;;2090391;28;20025;-73
2023/06/03 02:42:43;;;;;;;7.07;4.10;;;12.70;99.90;;;;;;2091827;28;20021;-73
2023/06/03 02:43:43;;;;;;;9.35;5.03;;;12.70;99.90;;;;;;2091432;28;20048;-73
2023/06/03 02:44:44;;;;;;;5.15;3.72;;;12.70;99.90;;;;;;2091286;28;20392;-73
2023/06/03 02:45:44;;;;;;;9.07;4.78;;;12.70;99.90;;;;;;2092600;28;20029;-73
2023/06/03 02:46:45;;;;;;;8.95;4.82;;;12.70;99.90;;;;;;2092961;28;20077;-73
2023/06/03 02:47:45;;;;;;;6.55;4.63;;;12.70;99.90;;;;;;2092276;28;20613;-73
2023/06/03 02:48:46;;;;;;;9.63;4.55;;;12.70;99.90;;;;;;2093493;28;20020;-73
2023/06/03 02:49:46;;;;;;;5.22;4.00;;;12.70;99.90;;;;;;2089612;28;20110;-73
2023/06/03 02:50:47;;;;;;;5.90;4.13;;;12.70;99.90;;;;;;2091610;28;20036;-73
2023/06/03 02:51:47;;;;;;;7.68;4.18;;;12.60;99.90;;;;;;2089477;28;20047;-73
2023/06/03 02:52:48;;;;;;;6.13;4.13;;;12.60;99.90;;;;;;2090188;28;20040;-73
2023/06/03 02:53:49;;;;;;;8.07;4.65;;;12.60;99.90;;;;;;2091112;28;20458;-73
2023/06/03 02:54:50;;;;;;;7.38;4.55;;;12.60;99.90;;;;;;2091796;28;20055;-72
2023/06/03 02:55:50;;;;;;;7.70;3.97;;;12.60;99.90;;;;;;2091076;28;20171;-73
2023/06/03 02:56:52;;;;;;;8.45;4.25;;;12.60;99.90;;;;;;2092515;28;20025;-73
2023/06/03 02:57:52;;;;;;;6.68;3.80;;;12.60;99.90;;;;;;2095657;28;20111;-73
2023/06/03 02:58:54;;;;;;;5.75;3.83;;;12.60;99.90;;;;;;2094979;28;20098;-73
2023/06/03 02:59:56;;;;;;;6.22;3.92;;;12.60;99.90;;;;;;2090967;28;20169;-73
2023/06/03 03:00:57;;;;;;;9.27;3.40;;;12.60;99.90;;;;;;2090317;28;20040;-72
2023/06/03 03:01:58;;;;;;;6.32;3.80;;;12.60;99.90;;;;;;2090930;28;20437;-72
2023/06/03 03:02:58;;;;;;;4.85;3.38;;;12.60;99.90;;;;;;2090155;28;20047;-73
2023/06/03 03:03:59;;;;;;;8.80;3.50;;;12.60;99.90;;;;;;2091628;28;20048;-73
2023/06/03 03:04:59;;;;;;;5.80;3.63;;;12.60;99.90;;;;;;2094331;28;20016;-73
2023/06/03 03:06:04;;;;;;;7.22;3.83;;;12.60;99.90;;;;;;2087368;28;20017;-73
2023/06/03 03:07:07;;;;;;;8.70;3.65;;;12.60;99.90;;;;;;2091094;28;20049;-73
2023/06/03 03:08:07;;;;;;;5.25;3.80;;;12.60;99.90;;;;;;2091311;28;20109;-73
2023/06/03 03:09:08;;;;;;;7.20;3.60;;;12.60;99.90;;;;;;2093108;28;20032;-73
2023/06/03 03:10:09;;;;;;;6.50;4.13;;;12.60;99.90;;;;;;2091677;28;20063;-73
2023/06/03 03:11:09;;;;;;;6.18;3.58;;;12.60;99.90;;;;;;2091423;28;20499;-73
2023/06/03 03:12:10;;;;;;;8.00;3.40;;;12.60;99.90;;;;;;2090524;28;20025;-73
2023/06/03 03:13:11;;;;;;;11.27;4.18;;;12.60;99.90;;;;;;2092057;28;20100;-73
2023/06/03 03:14:11;;;;;;;4.47;3.33;;;12.60;99.90;;;;;;2092061;28;20047;-73
2023/06/03 03:15:12;;;;;;;5.25;3.60;;;12.60;99.90;;;;;;2094196;28;20016;-73
2023/06/03 03:16:13;;;;;;;5.88;3.47;;;12.60;99.90;;;;;;2084873;28;20094;-73
2023/06/03 03:17:13;;;;;;;5.00;3.40;;;12.60;99.90;;;;;;2090816;28;20132;-73
2023/06/03 03:18:14;;;;;;;4.18;3.35;;;12.60;99.90;;;;;;2091464;28;20020;-72
2023/06/03 03:19:15;;;;;;;4.93;3.17;;;12.60;99.90;;;;;;2092038;28;20024;-73
2023/06/03 03:20:16;;;;;;;7.55;3.40;;;12.60;99.90;;;;;;2089483;28;20484;-73
2023/06/03 03:21:17;;;;;;;4.85;3.50;;;12.60;99.90;;;;;;2092601;28;20794;-73
2023/06/03 03:22:17;;;;;;;4.82;2.95;;;12.60;99.90;;;;;;2091569;28;20107;-72
2023/06/03 03:23:18;;;;;;;6.47;3.53;;;12.60;99.90;;;;;;2094288;28;20012;-73
2023/06/03 03:24:19;;;;;;;5.70;3.45;;;12.60;99.90;;;;;;2092727;28;20036;-73
2023/06/03 03:25:20;;;;;;;5.38;3.20;;;12.60;99.90;;;;;;2091319;28;20587;-72
2023/06/03 03:26:21;;;;;;;6.47;3.30;;;12.60;99.90;;;;;;2091039;28;20385;-73
2023/06/03 03:27:22;;;;;;;5.93;2.90;;;12.60;99.90;;;;;;2090036;28;20655;-73
2023/06/03 03:28:23;;;;;;;7.93;3.83;;;12.60;99.90;;;;;;2089745;28;20456;-73
2023/06/03 03:29:24;;;;;;;5.93;3.30;;;12.60;99.90;;;;;;2089521;28;20044;-73
2023/06/03 03:30:24;;;;;;;4.45;2.78;;;12.60;99.90;;;;;;2092680;28;20020;-73
2023/06/03 03:31:26;;;;;;;5.80;3.33;;;12.60;99.90;;;;;;2088441;28;20021;-73
2023/06/03 03:32:26;;;;;;;6.85;2.92;;;12.60;99.90;;;;;;2091037;28;20087;-73
2023/06/03 03:33:27;;;;;;;7.55;3.58;;;12.60;99.90;;;;;;2091748;28;20021;-73
2023/06/03 03:34:30;;;;;;;4.97;3.22;;;12.60;99.90;;;;;;2091491;28;20025;-73
2023/06/03 03:35:31;;;;;;;4.35;2.60;;;12.60;99.90;;;;;;2093526;28;20484;-72
2023/06/03 03:36:31;;;;;;;6.72;3.33;;;12.50;99.90;;;;;;2092945;28;20523;-73
2023/06/03 03:37:32;;;;;;;4.22;2.75;;;12.60;99.90;;;;;;2093158;28;20021;-73
2023/06/03 03:38:32;;;;;;;5.47;3.67;;;12.60;99.90;;;;;;2092991;28;20029;-73
2023/06/03 03:39:38;;;;;;;7.63;3.22;;;12.60;99.90;;;;;;2090718;28;20036;-73
2023/06/03 03:40:39;;;;;;;6.03;3.05;;;12.60;99.90;;;;;;2089452;28;20063;-73
2023/06/03 03:41:43;;;;;;;6.75;3.05;;;12.60;99.90;;;;;;2090671;28;20370;-73
2023/06/03 03:42:47;;;;;;;3.95;3.00;;;12.60;99.90;;;;;;2095871;28;20070;-73
2023/06/03 03:43:50;;;;;;;5.43;2.65;;;12.60;99.90;;;;;;2097180;28;20480;-73
2023/06/03 03:44:51;;;;;;;5.88;2.83;;;12.60;99.90;;;;;;2091403;28;20020;-73
2023/06/03 03:45:52;;;;;;;4.63;3.00;;;12.60;99.90;;;;;;2095190;28;20030;-73
2023/06/03 03:47:00;;;;;;;6.03;3.05;;;12.60;99.90;;;;;;2091330;28;20149;-73
2023/06/03 03:48:05;;;;;;;7.45;3.03;;;12.60;99.90;;;;;;2096952;28;20059;-73
2023/06/03 03:49:06;;;;;;;4.63;3.20;;;12.50;99.90;;;;;;2096403;28;20464;-73
2023/06/03 03:50:26;;;;;;;3.13;2.47;;;12.50;99.90;;;;;;2089900;28;20081;-73
2023/06/03 03:51:27;;;;;;;;;;;12.50;99.90;;;;;;2096874;28;20115;-73
2023/06/03 03:52:30;;;;;;;5.18;2.78;;;12.40;99.90;;;;;;2095305;28;20411;-73
2023/06/03 03:53:33;;;;;;;4.75;2.80;;;12.40;99.90;;;;;;2094124;28;20029;-73
2023/06/03 03:54:35;;;;;;;4.82;2.88;;;12.50;99.90;;;;;;2092839;28;20035;-73
2023/06/03 03:55:43;;;;;;;6.03;2.70;;;12.50;99.90;;;;;;2091208;28;20427;-73
2023/06/03 03:56:44;;;;;;;4.72;3.00;;;12.50;99.90;;;;;;2092688;28;20021;-73
2023/06/03 03:57:45;;;;;;;4.53;3.08;;;12.50;99.90;;;;;;2095063;28;20052;-73
2023/06/03 03:58:49;;;;;;;5.22;2.63;;;12.60;99.90;;;;;;2092719;28;20032;-73
2023/06/03 03:59:53;;;;;;;4.50;2.70;;;12.60;99.90;;;;;;2092368;28;20035;-73
2023/06/03 04:01:09;;;;;;;4.30;2.67;;;12.60;99.90;;;;;;2092627;28;20017;-73
2023/06/03 04:02:10;;;;;;;5.80;2.83;;;12.70;99.90;;;;;;2095396;28;20027;-73
2023/06/03 04:03:13;;;;;;;4.18;2.90;;;12.70;99.90;;;;;;2096862;28;20078;-73
2023/06/03 04:04:36;;;;;;;9.27;3.35;;;12.70;99.90;;;;;;2094460;28;20021;-73
2023/06/03 04:05:36;;;;;;;6.95;3.55;;;12.80;99.90;;;;;;2094075;28;20033;-73
2023/06/03 04:06:39;;;;;;;3.85;2.95;;;12.90;99.90;;;;;;2096921;28;20024;-73
2023/06/03 04:07:40;;;;;;;7.50;3.13;;;13.00;99.90;;;;;;2097201;28;20028;-73
2023/06/03 04:08:47;;;;;;;4.60;2.90;;;13.10;99.90;;;;;;2092430;28;20022;-73
2023/06/03 04:09:48;;;;;;;6.35;2.85;;;13.20;99.90;;;;;;2093066;28;20054;-73
2023/06/03 04:10:49;;;;;;;4.75;2.90;;;13.30;99.90;;;;;;2093371;28;20035;-74
2023/06/03 04:11:49;;;;;;;5.43;2.80;;;13.40;99.90;;;;;;2093867;28;20048;-72
2023/06/03 04:12:50;;;;;;;6.88;2.80;;;13.50;99.90;;;;;;2095587;28;20032;-73
2023/06/03 04:13:51;;;;;;;5.65;2.67;;;13.60;99.90;;;;;;2092057;28;20029;-73
2023/06/03 04:14:53;;;;;;;7.45;2.60;;;13.60;99.90;;;;;;2092196;28;20032;-73
2023/06/03 04:15:54;;;;;;;4.63;2.60;;;13.70;99.90;;;;;;2091369;28;20029;-73
2023/06/03 04:16:58;;;;;;;4.65;3.00;;;13.70;99.90;;;;;;2093595;28;20037;-73
2023/06/03 04:18:00;;;;;;;5.05;2.63;;;13.80;99.90;;;;;;2092790;28;20032;-73
2023/06/03 04:19:03;;;;;;;5.85;3.05;;;13.90;99.90;;;;;;2094577;28;20016;-73
2023/06/03 04:20:32;;;;;;;6.03;3.08;;;14.10;99.90;;;;;;2093070;28;20029;-73
2023/06/03 04:21:38;;;;;;;4.72;3.00;;;14.40;99.90;;;;;;2091750;28;20029;-72
2023/06/03 04:22:38;;;;;;;5.07;2.47;;;14.60;99.90;;;;;;2093027;28;20026;-73
2023/06/03 04:23:39;;;;;;;3.33;2.20;;;14.80;99.90;;;;;;2094226;28;20028;-73
2023/06/03 04:24:42;;;;;;;5.32;2.60;;;15.00;99.90;;;;;;2093253;28;20098;-73
2023/06/03 04:25:43;;;;;;;4.18;2.40;;;15.20;99.90;;;;;;2093901;28;20481;-73
2023/06/03 04:26:43;;;;;;;3.83;2.70;;;15.30;99.90;;;;;;2095319;28;20875;-73
2023/06/03 04:27:44;;;;;;;3.65;2.65;;;15.40;99.90;;;;;;2094463;28;20637;-73
2023/06/03 04:28:47;;;;;;;3.75;2.50;;;15.50;99.10;;;;;;2093103;28;20067;-72
2023/06/03 04:29:48;;;;;;;4.00;2.40;;;15.50;98.80;;;;;;2093489;28;20023;-73
2023/06/03 04:30:49;;;;;;;5.93;2.70;;;15.40;98.10;;;;;;2093884;28;20035;-73
2023/06/03 04:31:50;;;;;;;3.92;2.30;;;15.30;98.10;;;;;;2094359;28;20063;-73
2023/06/03 04:32:50;;;;;;;2.47;2.10;;;15.30;98.40;;;;;;2095231;28;20040;-72
2023/06/03 04:33:51;;;;;;;6.78;2.60;;;15.20;98.30;;;;;;2095291;28;20903;-73
2023/06/03 04:34:53;;;;;;;3.75;2.50;;;15.20;98.30;;;;;;2095035;28;20032;-73
2023/06/03 04:35:54;;;;;;;4.90;2.33;;;15.10;98.80;;;;;;2092598;28;20492;-73
2023/06/03 04:36:54;;;;;;;5.03;2.30;;;15.10;99.20;;;;;;2093012;28;20425;-73
2023/06/03 04:37:57;;;;;;;3.17;2.22;;;15.10;99.30;;;;;;2095777;28;20364;-73
2023/06/03 04:39:00;;;;;;;8.80;2.40;;;15.10;99.80;;;;;;2094408;28;20033;-73
2023/06/03 04:40:04;;;;;;;4.28;2.40;;;15.10;99.50;;;;;;2091889;28;20487;-73
2023/06/03 04:41:05;;;;;;;4.55;1.77;;;15.10;99.60;;;;;;2092675;28;21606;-73
2023/06/03 04:42:07;;;;;;;3.92;2.20;;;15.10;99.60;;;;;;2096235;28;20024;-73
2023/06/03 04:43:11;;;;;;;4.65;2.13;;;15.20;99.10;;;;;;2094058;28;20054;-72
2023/06/03 04:44:13;;;;;;;4.10;2.17;;;15.20;99.20;;;;;;2093121;28;20105;-73
2023/06/03 04:45:14;;;;;;;4.20;2.22;;;15.20;99.20;;;;;;2093273;28;20009;-73
2023/06/03 04:46:16;;;;;;;4.78;1.98;;;15.30;98.90;;;;;;2093570;28;20017;-73
2023/06/03 04:47:17;;;;;;;3.90;2.55;;;15.30;98.60;;;;;;2093896;28;20479;-73
2023/06/03 04:48:19;;;;;;;4.35;1.90;;;15.40;98.50;;;;;;2092651;28;20472;-72
2023/06/03 04:49:19;;;;;;;5.75;2.30;;;15.40;98.70;;;;;;2094468;28;20021;-73
2023/06/03 04:50:20;;;;;;;3.35;1.65;;;15.50;98.00;;;;;;2094054;28;20024;-73
2023/06/03 04:51:22;;;;;;;4.25;2.83;;;15.50;97.60;;;;;;2095957;28;20108;-73
2023/06/03 04:52:23;;;;;;;3.10;1.92;;;15.60;97.40;;;;;;2096755;28;20036;-73
2023/06/03 04:53:25;;;;;;;3.30;1.83;;;15.60;97.00;;;;;;2094910;28;20040;-73
2023/06/03 04:54:26;;;;;;;4.13;2.08;;;15.70;96.00;;;;;;2094045;28;20025;-73
2023/06/03 04:55:27;;;;;;;3.97;2.08;;;15.70;95.60;;;;;;2091057;28;20103;-73
2023/06/03 04:56:31;;;;;;;3.22;1.83;;;15.70;95.20;;;;;;2092102;28;20017;-73
2023/06/03 04:57:31;;;;;;;4.60;2.05;;;15.80;94.90;;;;;;2094870;28;20029;-73
2023/06/03 04:58:32;;;;;;;4.55;1.70;;;15.80;94.40;;;;;;2096677;28;20020;-73
2023/06/03 04:59:33;;;;;;;3.20;1.63;;;15.80;94.30;;;;;;2095117;28;20138;-73
2023/06/03 05:00:34;;;;;;;3.70;1.90;;;15.90;94.30;;;;;;2093565;28;20112;-73
2023/06/03 05:01:39;;;;;;;3.60;2.05;;;15.90;93.60;;;;;;2093879;28;20024;-73
2023/06/03 05:02:44;;;;;;;3.80;1.65;;;16.00;93.30;;;;;;2091960;28;20028;-73
2023/06/03 05:03:44;;;;;;;3.35;1.75;;;16.00;93.00;;;;;;2095384;28;20094;-73
2023/06/03 05:04:46;;;;;;;5.68;1.60;;;16.00;92.60;;;;;;2093024;28;20021;-73
2023/06/03 05:05:46;;;;;;;4.43;2.20;;;16.10;92.70;;;;;;2093712;28;20104;-73
2023/06/03 05:06:48;;;;;;;3.80;1.85;;;16.10;91.70;;;;;;2093093;28;20029;-73
2023/06/03 05:07:50;;;;;;;2.75;1.98;;;16.10;91.20;;;;;;2091741;28;20020;-73
2023/06/03 05:08:51;;;;;;;2.95;1.70;;;16.10;91.40;;;;;;2091506;28;20028;-72
2023/06/03 05:09:51;;;;;;;2.67;1.60;;;16.20;90.80;;;;;;2091143;28;20036;-73
2023/06/03 05:10:52;;;;;;;4.15;1.75;;;16.20;90.20;;;;;;2092089;28;20038;-73
2023/06/03 05:11:52;;;;;;;4.28;2.17;;;16.30;90.30;;;;;;2096378;28;20179;-73
2023/06/03 05:12:53;;;;;;;2.00;1.58;;;16.30;89.20;;;;;;2094671;28;20032;-73
2023/06/03 05:13:53;;;;;;;4.75;1.85;;;16.30;87.90;;;;;;2092407;28;20024;-73
2023/06/03 05:14:54;;;;;;;4.57;2.10;;;16.30;86.20;;;;;;2093385;28;20056;-73
2023/06/03 05:15:55;;;;;;;1.83;1.67;;;16.40;86.90;;;;;;2091542;28;20028;-72
2023/06/03 05:16:55;;;;;;;7.68;2.10;;;16.40;85.00;;;;;;2093049;28;20060;-73
2023/06/03 05:17:56;;;;;;;3.33;2.10;;;16.40;84.50;;;;;;2092471;28;20028;-73
2023/06/03 05:18:56;;;;;;;4.35;1.67;;;16.40;83.60;;;;;;2093251;28;20029;-73
2023/06/03 05:19:57;;;;;;;4.18;1.80;;;16.40;83.70;;;;;;2090666;28;20043;-73
2023/06/03 05:20:57;;;;;;;3.65;1.92;;;16.40;83.60;;;;;;2089910;28;20039;-72
2023/06/03 05:22:00;;;;;;;3.75;1.85;;;16.40;82.80;;;;;;2092670;28;20064;-73
2023/06/03 05:23:01;;;;;;;2.38;1.70;;;16.40;81.60;;;;;;2092100;28;20035;-73